createdAt,value
2023-03-21T00:01:31.912Z,77.12
2023-03-21T00:03:58.396Z,77.46
2023-03-21T00:06:25.087Z,77.35
2023-03-21T00:08:51.612Z,77.78
2023-03-21T00:11:18.131Z,77.92
2023-03-21T00:13:44.598Z,78.17
2023-03-21T00:16:22.949Z,77.64
2023-03-21T00:18:57.271Z,77.48
2023-03-21T00:22:05.471Z,78.06
2023-03-21T00:24:18.833Z,78.47
2023-03-21T00:26:46.149Z,78.15
2023-03-21T00:29:12.804Z,78.17
2023-03-21T00:31:39.301Z,78.30
2023-03-21T00:34:05.861Z,77.84
2023-03-21T00:36:32.836Z,77.35
2023-03-21T00:39:00.808Z,76.92
2023-03-21T00:41:41.559Z,75.97
2023-03-21T00:44:11.504Z,76.32
2023-03-21T00:46:51.548Z,76.94
2023-03-21T00:49:21.074Z,76.66
2023-03-21T00:51:51.616Z,76.87
2023-03-21T00:54:18.216Z,76.49
2023-03-21T00:56:44.758Z,77.16
2023-03-21T00:59:11.252Z,76.65
2023-03-21T01:01:37.737Z,77.86
2023-03-21T01:04:10.909Z,78.00
2023-03-21T01:06:41.304Z,78.83
2023-03-21T01:09:11.616Z,78.13
2023-03-21T01:11:38.252Z,78.02
2023-03-21T01:14:20.879Z,75.11
2023-03-21T01:16:48.995Z,77.02
2023-03-21T01:19:24.980Z,77.71
2023-03-21T01:21:52.944Z,77.93
2023-03-21T01:24:19.692Z,74.83
2023-03-21T01:26:46.188Z,75.77
2023-03-21T01:29:12.989Z,75.83
2023-03-21T01:31:39.596Z,74.38
2023-03-21T01:34:07.100Z,76.70
2023-03-21T01:36:33.894Z,77.01
2023-03-21T01:39:06.568Z,78.46
2023-03-21T01:41:44.084Z,78.60
2023-03-21T01:44:22.746Z,78.65
2023-03-21T01:47:03.900Z,78.94
2023-03-21T01:49:46.827Z,79.33
2023-03-21T01:52:38.762Z,79.17
2023-03-21T01:55:11.865Z,79.12
2023-03-21T01:58:02.076Z,79.49
2023-03-21T02:00:34.714Z,79.64
2023-03-21T02:03:26.313Z,75.92
2023-03-21T02:06:07.066Z,76.88
2023-03-21T02:08:40.010Z,78.51
2023-03-21T02:11:11.597Z,79.57
2023-03-21T02:13:42.041Z,79.62
2023-03-21T02:16:21.307Z,80.19
2023-03-21T02:19:13.998Z,81.36
2023-03-21T02:21:43.653Z,80.71
2023-03-21T02:24:16.342Z,80.54
2023-03-21T02:27:01.408Z,80.58
2023-03-21T02:29:32.910Z,81.25
2023-03-21T02:32:12.920Z,82.81
2023-03-21T02:35:01.442Z,81.21
2023-03-21T02:37:38.655Z,81.59
2023-03-21T02:40:22.560Z,82.06
2023-03-21T02:43:07.163Z,81.79
2023-03-21T02:45:40.439Z,82.25
2023-03-21T02:48:25.587Z,81.14
2023-03-21T02:50:57.777Z,80.39
2023-03-21T02:53:25.920Z,82.16
2023-03-21T02:55:54.011Z,82.57
2023-03-21T02:58:23.281Z,82.62
2023-03-21T03:00:58.148Z,82.97
2023-03-21T03:03:39.464Z,83.48
2023-03-21T03:06:36.929Z,83.65
2023-03-21T03:09:13.477Z,83.21
2023-03-21T03:11:41.840Z,84.22
2023-03-21T03:14:35.673Z,83.91
2023-03-21T03:17:18.525Z,83.86
2023-03-21T03:20:15.567Z,82.94
2023-03-21T03:22:53.251Z,83.34
2023-03-21T03:25:35.829Z,83.27
2023-03-21T03:28:09.048Z,82.89
2023-03-21T03:30:44.677Z,83.47
2023-03-21T03:33:17.874Z,83.75
2023-03-21T03:35:50.325Z,85.25
2023-03-21T03:38:22.035Z,84.91
2023-03-21T03:40:55.187Z,84.38
2023-03-21T03:43:40.787Z,84.40
2023-03-21T03:46:14.517Z,84.60
2023-03-21T03:48:51.231Z,85.12
2023-03-21T03:51:21.044Z,86.09
2023-03-21T03:54:18.948Z,85.30
2023-03-21T03:56:46.819Z,85.22
2023-03-21T03:59:19.419Z,84.95
2023-03-21T04:02:06.667Z,84.55
2023-03-21T04:04:34.062Z,85.33
2023-03-21T04:07:03.381Z,84.94
2023-03-21T04:09:43.108Z,85.03
2023-03-21T04:12:13.182Z,85.71
2023-03-21T04:14:47.214Z,85.60
2023-03-21T04:17:16.446Z,86.26
2023-03-21T04:19:43.021Z,86.38
2023-03-21T04:22:09.815Z,85.96
2023-03-21T04:24:42.795Z,86.83
2023-03-21T04:27:09.369Z,86.42
2023-03-21T04:29:39.493Z,86.83
2023-03-21T04:32:24.721Z,87.22
2023-03-21T04:35:00.025Z,86.39
2023-03-21T04:37:27.953Z,87.22
2023-03-21T04:39:55.107Z,86.89
2023-03-21T04:42:21.869Z,87.18
2023-03-21T04:44:49.029Z,86.87
2023-03-21T04:47:20.424Z,87.42
2023-03-21T04:49:49.992Z,87.65
2023-03-21T04:52:16.575Z,88.24
2023-03-21T04:54:43.807Z,88.38
2023-03-21T04:57:10.631Z,88.18
2023-03-21T04:59:37.096Z,88.59
2023-03-21T05:02:03.731Z,88.87
2023-03-21T05:04:31.571Z,88.80
2023-03-21T05:06:58.785Z,88.56
2023-03-21T05:09:25.940Z,88.77
2023-03-21T05:11:52.988Z,89.08
2023-03-21T05:14:22.181Z,89.94
2023-03-21T05:16:53.065Z,90.61
2023-03-21T05:19:22.722Z,89.62
2023-03-21T05:21:50.126Z,89.98
2023-03-21T05:24:21.871Z,90.00
2023-03-21T05:26:50.413Z,89.25
2023-03-21T05:29:19.272Z,89.79
2023-03-21T05:31:52.412Z,89.97
2023-03-21T05:34:19.934Z,88.89
2023-03-21T05:36:46.693Z,89.06
2023-03-21T05:39:13.305Z,89.42
2023-03-21T05:41:45.742Z,89.47
2023-03-21T05:44:13.402Z,88.70
2023-03-21T05:46:40.050Z,88.18
2023-03-21T05:49:06.796Z,87.41
2023-03-21T05:51:33.575Z,87.76
2023-03-21T05:54:00.111Z,87.64
2023-03-21T05:56:26.804Z,86.99
2023-03-21T05:59:01.194Z,86.61
2023-03-21T06:01:30.564Z,86.53
2023-03-21T06:04:06.657Z,85.98
2023-03-21T06:06:33.847Z,85.49
2023-03-21T06:09:01.121Z,85.89
2023-03-21T06:11:30.942Z,85.52
2023-03-21T06:14:20.277Z,82.42
2023-03-21T06:17:00.716Z,82.09
2023-03-21T06:19:27.447Z,78.90
2023-03-21T06:22:04.999Z,77.81
2023-03-21T06:24:33.766Z,76.59
2023-03-21T06:27:02.814Z,74.77
2023-03-21T06:29:38.883Z,71.12
2023-03-21T06:32:07.423Z,71.21
2023-03-21T06:34:34.394Z,69.77
2023-03-21T06:37:00.986Z,68.05
2023-03-21T06:39:33.056Z,68.93
2023-03-21T06:42:00.180Z,66.06
2023-03-21T06:44:27.278Z,63.93
2023-03-21T06:47:00.483Z,61.84
2023-03-21T06:49:27.701Z,64.38
2023-03-21T06:51:57.271Z,62.59
2023-03-21T06:54:23.819Z,61.70
2023-03-21T06:57:00.374Z,60.91
2023-03-21T06:59:30.528Z,60.58
2023-03-21T07:02:00.789Z,59.00
2023-03-21T07:04:29.176Z,58.64
2023-03-21T07:06:57.181Z,58.06
2023-03-21T07:09:27.918Z,56.39
2023-03-21T07:11:57.896Z,55.79
2023-03-21T07:14:34.456Z,55.79
2023-03-21T07:17:00.985Z,57.19
2023-03-21T07:19:29.076Z,56.90
2023-03-21T07:21:55.588Z,54.80
2023-03-21T07:24:22.090Z,52.55
2023-03-21T07:26:48.642Z,51.51
2023-03-21T07:29:17.469Z,51.24
2023-03-21T07:31:44.162Z,51.96
2023-03-21T07:34:10.778Z,52.69
2023-03-21T07:36:37.697Z,50.67
2023-03-21T07:39:04.598Z,50.01
2023-03-21T07:41:31.149Z,49.83
2023-03-21T07:44:09.907Z,50.56
2023-03-21T07:46:36.351Z,50.16
2023-03-21T07:49:02.780Z,51.45
2023-03-21T07:51:29.425Z,47.63
2023-03-21T07:53:55.880Z,46.69
2023-03-21T07:56:22.317Z,46.42
2023-03-21T07:58:48.769Z,46.22
2023-03-21T08:01:15.258Z,45.91
2023-03-21T08:03:41.820Z,45.04
2023-03-21T08:06:08.672Z,45.35
2023-03-21T08:08:35.269Z,43.86
2023-03-21T08:11:01.792Z,43.11
2023-03-21T08:13:28.360Z,42.96
2023-03-21T08:15:54.817Z,43.72
2023-03-21T08:18:21.474Z,42.63
2023-03-21T08:20:52.115Z,43.21
2023-03-21T08:23:18.817Z,43.27
2023-03-21T08:25:45.281Z,42.07
2023-03-21T08:28:11.757Z,42.17
2023-03-21T08:30:38.304Z,42.13
2023-03-21T08:33:04.828Z,40.36
2023-03-21T08:35:31.648Z,39.32
2023-03-21T08:37:58.122Z,39.68
2023-03-21T08:40:24.629Z,40.17
2023-03-21T08:42:51.127Z,39.51
2023-03-21T08:45:18.195Z,38.62
2023-03-21T08:47:45.040Z,38.65
2023-03-21T08:50:13.594Z,38.74
2023-03-21T08:52:40.097Z,39.45
2023-03-21T08:55:06.869Z,38.24
2023-03-21T08:57:33.369Z,38.05
2023-03-21T08:59:59.907Z,38.30
2023-03-21T09:02:27.032Z,38.20
2023-03-21T09:04:54.807Z,37.29
2023-03-21T09:07:22.191Z,36.84
2023-03-21T09:10:08.175Z,37.08
2023-03-21T09:12:38.834Z,37.21
2023-03-21T09:15:05.901Z,37.57
2023-03-21T09:17:32.877Z,36.40
2023-03-21T09:20:00.566Z,36.00
2023-03-21T09:22:27.636Z,35.58
2023-03-21T09:24:54.140Z,33.86
2023-03-21T09:27:25.365Z,33.26
2023-03-21T09:29:52.635Z,33.15
2023-03-21T09:32:19.102Z,30.90
2023-03-21T09:34:45.906Z,32.38
2023-03-21T09:37:13.678Z,32.66
2023-03-21T09:39:41.110Z,32.47
2023-03-21T09:42:17.635Z,33.24
2023-03-21T09:44:47.347Z,32.81
2023-03-21T09:47:25.141Z,32.91
2023-03-21T09:50:14.724Z,31.66
2023-03-21T09:52:48.061Z,32.97
2023-03-21T09:55:19.945Z,33.20
2023-03-21T09:57:49.227Z,34.00
2023-03-21T10:00:25.698Z,33.79
2023-03-21T10:02:57.269Z,33.28
2023-03-21T10:05:25.732Z,33.65
2023-03-21T10:08:13.279Z,32.92
2023-03-21T10:10:46.397Z,33.42
2023-03-21T10:13:33.118Z,32.63
2023-03-21T10:16:01.223Z,34.45
2023-03-21T10:18:29.760Z,34.21
2023-03-21T10:20:56.658Z,32.47
2023-03-21T10:23:26.186Z,33.41
2023-03-21T10:25:54.935Z,31.19
2023-03-21T10:28:24.811Z,30.40
2023-03-21T10:30:53.096Z,30.26
2023-03-21T10:33:24.697Z,29.70
2023-03-21T10:35:53.372Z,28.88
2023-03-21T10:38:21.127Z,30.15
2023-03-21T10:40:47.621Z,29.60
2023-03-21T10:43:17.092Z,29.54
2023-03-21T10:45:45.877Z,29.24
2023-03-21T10:48:12.691Z,29.31
2023-03-21T10:50:39.442Z,29.87
2023-03-21T10:53:14.621Z,29.86
2023-03-21T10:55:42.043Z,29.10
2023-03-21T10:58:10.930Z,29.24
2023-03-21T11:00:41.207Z,30.14
2023-03-21T11:03:20.180Z,29.10
2023-03-21T11:05:47.061Z,30.17
2023-03-21T11:08:18.063Z,29.93
2023-03-21T11:11:04.869Z,30.07
2023-03-21T11:13:37.769Z,29.64
2023-03-21T11:16:06.355Z,28.25
2023-03-21T11:18:35.877Z,27.42
2023-03-21T11:21:03.823Z,27.22
2023-03-21T11:23:32.064Z,25.56
2023-03-21T11:26:02.141Z,25.52
2023-03-21T11:28:38.901Z,25.78
2023-03-21T11:31:06.939Z,25.54
2023-03-21T11:33:36.635Z,26.00
2023-03-21T11:36:07.813Z,28.10
2023-03-21T11:38:38.950Z,28.70
2023-03-21T11:41:06.157Z,29.26
2023-03-21T11:43:35.740Z,30.20
2023-03-21T11:46:10.089Z,31.15
2023-03-21T11:48:50.420Z,31.18
2023-03-21T11:51:26.048Z,31.51
2023-03-21T11:54:11.202Z,32.69
2023-03-21T11:56:40.616Z,32.25
2023-03-21T11:59:10.538Z,32.39
2023-03-21T12:01:46.702Z,30.90
2023-03-21T12:04:13.309Z,27.47
2023-03-21T12:06:52.793Z,27.63
2023-03-21T12:09:29.191Z,27.93
2023-03-21T12:12:14.177Z,28.09
2023-03-21T12:14:49.950Z,29.91
2023-03-21T12:17:22.596Z,28.20
2023-03-21T12:19:55.408Z,27.58
2023-03-21T12:22:33.216Z,27.09
2023-03-21T12:25:06.290Z,26.87
2023-03-21T12:27:47.926Z,25.61
2023-03-21T12:30:20.516Z,26.17
2023-03-21T12:33:04.200Z,26.95
2023-03-21T12:35:33.595Z,27.34
2023-03-21T12:38:04.027Z,28.03
2023-03-21T12:40:36.796Z,28.90
2023-03-21T12:43:22.850Z,29.24
2023-03-21T12:45:52.011Z,28.34
2023-03-21T12:48:18.898Z,26.53
2023-03-21T12:50:46.154Z,26.68
2023-03-21T12:53:31.653Z,27.56
2023-03-21T12:56:01.608Z,27.25
2023-03-21T12:58:28.789Z,27.59
2023-03-21T13:00:57.009Z,28.40
2023-03-21T13:03:40.133Z,28.74
2023-03-21T13:06:09.407Z,29.02
2023-03-21T13:08:38.909Z,29.96
2023-03-21T13:11:06.874Z,29.76
2023-03-21T13:13:42.392Z,28.62
2023-03-21T13:16:11.987Z,28.76
2023-03-21T13:18:43.283Z,28.89
2023-03-21T13:21:21.472Z,29.28
2023-03-21T13:24:17.264Z,30.81
2023-03-21T13:26:46.096Z,28.79
2023-03-21T13:29:13.692Z,26.70
2023-03-21T13:31:51.698Z,28.89
2023-03-21T13:34:21.294Z,30.15
2023-03-21T13:36:48.754Z,31.83
2023-03-21T13:39:20.808Z,30.04
2023-03-21T13:41:49.158Z,30.13
2023-03-21T13:44:22.245Z,29.65
2023-03-21T13:47:02.738Z,28.92
2023-03-21T13:49:32.460Z,28.85
2023-03-21T13:51:59.691Z,28.40
2023-03-21T13:54:29.918Z,29.03
2023-03-21T13:56:58.756Z,29.01
2023-03-21T13:59:32.638Z,28.25
2023-03-21T14:02:00.882Z,29.28
2023-03-21T14:04:42.020Z,30.35
2023-03-21T14:07:25.129Z,30.25
2023-03-21T14:09:56.116Z,30.48
2023-03-21T14:12:24.292Z,31.88
2023-03-21T14:14:52.375Z,31.08
2023-03-21T14:17:29.130Z,31.18
2023-03-21T14:20:01.808Z,30.62
2023-03-21T14:22:29.472Z,30.02
2023-03-21T14:24:59.549Z,30.90
2023-03-21T14:27:29.454Z,29.89
2023-03-21T14:29:56.071Z,29.83
2023-03-21T14:32:25.336Z,28.41
2023-03-21T14:34:51.904Z,31.03
2023-03-21T14:37:37.669Z,31.50
2023-03-21T14:40:17.376Z,32.45
2023-03-21T14:42:48.570Z,32.19
2023-03-21T14:45:18.914Z,31.37
2023-03-21T14:47:57.048Z,32.50
2023-03-21T14:50:41.307Z,32.46
2023-03-21T14:53:11.489Z,33.12
2023-03-21T14:55:42.213Z,32.19
2023-03-21T14:58:11.470Z,32.30
2023-03-21T15:00:38.308Z,31.66
2023-03-21T15:03:04.869Z,31.92
2023-03-21T15:05:32.921Z,32.39
2023-03-21T15:08:01.291Z,33.14
2023-03-21T15:10:28.862Z,33.24
2023-03-21T15:12:59.790Z,33.49
2023-03-21T15:15:27.679Z,33.34
2023-03-21T15:17:56.894Z,32.90
2023-03-21T15:20:26.360Z,32.63
2023-03-21T15:22:55.079Z,32.73
2023-03-21T15:25:26.011Z,31.76
2023-03-21T15:27:52.652Z,32.39
2023-03-21T15:30:21.350Z,32.42
2023-03-21T15:32:48.661Z,31.83
2023-03-21T15:35:16.889Z,31.81
2023-03-21T15:37:51.744Z,32.38
2023-03-21T15:40:20.179Z,32.15
2023-03-21T15:42:46.622Z,32.54
2023-03-21T15:45:27.288Z,31.82
2023-03-21T15:48:07.899Z,32.76
2023-03-21T15:50:42.972Z,32.25
2023-03-21T15:53:16.124Z,33.63
2023-03-21T15:55:48.147Z,32.83
2023-03-21T15:58:16.998Z,32.69
2023-03-21T16:00:48.843Z,33.33
2023-03-21T16:03:35.757Z,33.34
2023-03-21T16:06:10.648Z,32.91
2023-03-21T16:08:42.590Z,32.67
2023-03-21T16:11:16.004Z,31.92
2023-03-21T16:13:42.553Z,32.12
2023-03-21T16:16:19.338Z,31.91
2023-03-21T16:18:46.069Z,32.68
2023-03-21T16:21:17.001Z,32.08
2023-03-21T16:23:43.612Z,31.98
2023-03-21T16:26:11.782Z,32.26
2023-03-21T16:28:38.240Z,32.86
2023-03-21T16:31:04.797Z,33.29
2023-03-21T16:33:31.534Z,33.55
2023-03-21T16:35:58.104Z,32.67
2023-03-21T16:38:24.692Z,32.86
2023-03-21T16:40:51.643Z,33.29
2023-03-21T16:43:18.144Z,33.96
2023-03-21T16:45:44.617Z,34.71
2023-03-21T16:48:16.271Z,34.98
2023-03-21T16:50:43.259Z,34.26
2023-03-21T16:53:09.835Z,34.30
2023-03-21T16:55:37.164Z,35.03
2023-03-21T16:58:03.912Z,35.08
2023-03-21T17:00:31.261Z,36.15
2023-03-21T17:03:00.322Z,35.90
2023-03-21T17:05:27.619Z,35.97
2023-03-21T17:07:54.366Z,36.18
2023-03-21T17:10:22.541Z,36.75
2023-03-21T17:12:49.310Z,37.17
2023-03-21T17:15:15.993Z,38.50
2023-03-21T17:17:42.829Z,38.05
2023-03-21T17:20:18.677Z,40.14
2023-03-21T17:22:45.344Z,41.46
2023-03-21T17:25:12.035Z,43.36
2023-03-21T17:27:38.711Z,44.19
2023-03-21T17:30:13.611Z,44.86
2023-03-21T17:32:40.163Z,45.28
2023-03-21T17:35:06.955Z,45.25
2023-03-21T17:37:34.200Z,45.55
2023-03-21T17:40:01.074Z,45.82
2023-03-21T17:42:27.510Z,46.08
2023-03-21T17:44:53.989Z,47.34
2023-03-21T17:47:25.412Z,47.56
2023-03-21T17:49:52.278Z,47.31
2023-03-21T17:52:18.786Z,48.03
2023-03-21T17:54:45.353Z,47.82
2023-03-21T17:57:12.084Z,47.51
2023-03-21T17:59:38.552Z,48.17
2023-03-21T18:02:05.075Z,48.54
2023-03-21T18:04:31.585Z,48.32
2023-03-21T18:07:01.107Z,48.67
2023-03-21T18:09:28.508Z,49.03
2023-03-21T18:11:54.973Z,49.35
2023-03-21T18:14:27.929Z,49.76
2023-03-21T18:16:55.581Z,48.96
2023-03-21T18:19:22.106Z,49.35
2023-03-21T18:21:48.867Z,49.77
2023-03-21T18:24:15.438Z,49.68
2023-03-21T18:26:42.737Z,49.10
2023-03-21T18:32:06.248Z,49.59
2023-03-21T18:34:35.373Z,49.18
2023-03-21T18:37:03.987Z,49.07
2023-03-21T18:39:31.128Z,48.93
2023-03-21T18:42:02.149Z,49.63
2023-03-21T18:44:29.894Z,49.66
2023-03-21T18:46:57.466Z,50.76
2023-03-21T18:52:11.987Z,50.58
2023-03-21T18:54:39.016Z,50.32
2023-03-21T18:59:53.194Z,50.91
2023-03-21T19:02:19.699Z,51.76
2023-03-21T19:04:46.446Z,52.50
2023-03-21T19:07:13.045Z,52.48
2023-03-21T19:10:01.573Z,52.79
2023-03-21T19:12:27.468Z,52.70
2023-03-21T19:14:54.147Z,52.14
2023-03-21T19:20:07.480Z,53.69
2023-03-21T19:22:33.939Z,53.78
2023-03-21T19:25:00.377Z,53.71
2023-03-21T19:27:27.090Z,54.30
2023-03-21T19:30:10.781Z,54.46
2023-03-21T19:32:39.759Z,54.95
2023-03-21T19:35:07.411Z,55.23
2023-03-21T19:37:36.143Z,54.99
2023-03-21T19:40:03.609Z,55.38
2023-03-21T19:42:30.962Z,55.57
2023-03-21T19:44:57.832Z,55.48
2023-03-21T19:47:24.374Z,55.07
2023-03-21T19:52:40.530Z,55.71
2023-03-21T19:55:07.344Z,56.24
2023-03-21T19:57:34.883Z,55.39
2023-03-21T20:00:01.732Z,56.14
2023-03-21T20:02:35.487Z,56.31
2023-03-21T20:05:02.942Z,56.37
2023-03-21T20:07:31.300Z,56.87
2023-03-21T20:09:57.737Z,56.64
2023-03-21T20:12:24.195Z,57.29
2023-03-21T20:14:57.961Z,59.06
2023-03-21T20:17:31.787Z,58.63
2023-03-21T20:19:58.325Z,58.17
2023-03-21T20:22:46.048Z,58.13
2023-03-21T20:25:11.551Z,57.84
2023-03-21T20:27:41.728Z,57.77
2023-03-21T20:30:10.614Z,59.62
2023-03-21T20:32:37.798Z,58.66
2023-03-21T20:35:18.812Z,59.08
2023-03-21T20:37:49.687Z,58.65
2023-03-21T20:40:19.887Z,58.94
2023-03-21T20:42:48.675Z,58.83
2023-03-21T20:45:16.431Z,59.46
2023-03-21T20:47:43.360Z,59.50
2023-03-21T20:50:11.849Z,59.30
2023-03-21T20:53:06.335Z,60.09
2023-03-21T20:55:27.475Z,60.23
2023-03-21T20:57:54.774Z,60.69
2023-03-21T21:00:22.341Z,60.79
2023-03-21T21:02:49.642Z,60.51
2023-03-21T21:05:34.549Z,60.86
2023-03-21T21:08:01.323Z,60.84
2023-03-21T21:10:28.792Z,62.01
2023-03-21T21:12:55.548Z,61.29
2023-03-21T21:15:22.087Z,60.83
2023-03-21T21:18:07.091Z,61.92
2023-03-21T21:20:35.207Z,60.43
2023-03-21T21:23:01.909Z,61.12
2023-03-21T21:25:30.460Z,61.89
2023-03-21T21:27:56.979Z,62.19
2023-03-21T21:30:23.548Z,64.09
2023-03-21T21:32:50.299Z,63.62
2023-03-21T21:35:17.987Z,63.46
2023-03-21T21:37:44.624Z,64.02
2023-03-21T21:40:13.953Z,65.06
2023-03-21T21:42:41.605Z,65.58
2023-03-21T21:45:09.371Z,65.19
2023-03-21T21:47:35.972Z,64.69
2023-03-21T21:50:02.420Z,65.24
2023-03-21T21:52:29.142Z,65.31
2023-03-21T21:54:55.586Z,65.13
2023-03-21T21:57:22.803Z,64.94
2023-03-21T21:59:54.202Z,65.39
2023-03-21T22:02:23.773Z,66.07
2023-03-21T22:04:51.273Z,65.95
2023-03-21T22:07:17.732Z,66.58
2023-03-21T22:09:44.790Z,66.68
2023-03-21T22:12:11.376Z,66.78
2023-03-21T22:14:37.905Z,67.13
2023-03-21T22:17:05.151Z,66.66
2023-03-21T22:19:31.784Z,66.72
2023-03-21T22:21:58.679Z,67.30
2023-03-21T22:24:25.816Z,67.35
2023-03-21T22:26:57.984Z,68.77
2023-03-21T22:29:25.803Z,67.67
2023-03-21T22:31:54.224Z,68.56
2023-03-21T22:34:24.670Z,68.57
2023-03-21T22:36:51.926Z,68.68
2023-03-21T22:39:18.909Z,68.64
2023-03-21T22:41:45.952Z,68.99
2023-03-21T22:44:12.892Z,68.95
2023-03-21T22:46:39.488Z,70.15
2023-03-21T22:49:06.416Z,70.56
2023-03-21T22:51:33.003Z,70.64
2023-03-21T22:53:59.482Z,70.57
2023-03-21T22:56:25.892Z,71.09
2023-03-21T22:58:52.573Z,71.43
2023-03-21T23:01:19.120Z,71.17
2023-03-21T23:03:46.190Z,71.45
2023-03-21T23:06:12.662Z,72.01
2023-03-21T23:08:39.124Z,73.20
2023-03-21T23:11:09.074Z,73.58
2023-03-21T23:13:36.761Z,72.98
2023-03-21T23:16:07.131Z,72.61
2023-03-21T23:18:33.765Z,72.30
2023-03-21T23:21:00.410Z,72.96
2023-03-21T23:23:26.939Z,72.64
2023-03-21T23:25:53.577Z,72.68
2023-03-21T23:28:20.160Z,72.97
2023-03-21T23:30:46.589Z,73.56
2023-03-21T23:33:13.109Z,73.38
2023-03-21T23:35:39.624Z,73.51
2023-03-21T23:38:06.436Z,74.06
2023-03-21T23:40:32.935Z,73.42
2023-03-21T23:42:59.715Z,74.17
2023-03-21T23:45:26.308Z,74.13
2023-03-21T23:47:52.889Z,74.49
2023-03-21T23:50:19.529Z,74.50
2023-03-21T23:52:46.027Z,75.62
2023-03-21T23:55:12.468Z,75.44
2023-03-21T23:57:41.656Z,75.49
